Suttons Bay, MI (49682)

6:23 PM EDT on August 03, 2015 (GMT -0400)
South Shore Drive | | Change Station
CLOSE
Current Station
Personal Weather Station
Location: Suttons Bay, MI
Elevation: 597 ft
Nearby Weather Stations

Elev 597 ft 44.97 °N, 85.64 °W | Updated 23 seconds ago

Overcast
Overcast
71.2 °F
Feels Like 76 °F
N
2.0
Wind Variable Wind from West
Gusts 5.0 mph

Today
High -- | Low -- °F
--% Chance of Precip.
Yesterday
High -- | Low -- °F
Precip. -- in
6:30 AM 9:06 PM
Waning Gibbous, 83% visible
Pressure 29.75 in
Visibility 10.0 miles
Clouds Few 6000 ft
Mostly Cloudy 8500 ft
Heat Index 76 °F
Dew Point 56 °F
Humidity 58%
Rainfall 0.00 in
Snow Depth Not available.
UV 2 out of 12
Pollen 5.50 out of 12
Air Quality Not available.
Flu Activity Not available.
METAR KTVC 032153Z 25009KT 10SM FEW060 BKN085 23/09 A2976 RMK AO2 SLP075 T02330094

More Conditions Fewer Conditions

Pressure 29.75 in
Visibility 10.0 miles
Clouds Few 6000 ft
Mostly Cloudy 8500 ft
Heat Index 76 °F
Dew Point 56 °F
Humidity 58%
Rainfall 0.00 in
Snow Depth Not available.
UV 2 out of 12
Pollen 5.50 out of 12
Air Quality Not available.
Flu Activity Not available.
METAR KTVC 032153Z 25009KT 10SM FEW060 BKN085 23/09 A2976 RMK AO2 SLP075 T02330094

More Conditions Fewer Conditions

Nowcast | as of 6:00 PM EDT on August 3, 2015

At 7 PM...mostly cloudy. Scattered showers and slight chance of thunderstorms. Temperature 71. Northwest winds 10 mph. At 9 PM...mostly cloudy. Chance of showers. Temperature 67. North winds 8 mph. At 11 PM...partly cloudy. Chance of showers. Temperature 63. Light winds. At 1 am...mostly cloudy. Chance of showers. Temperature 61. Light winds.

×

10-Day Weather Forecast

×

Almanac

Astronomy

Aug. 03, 2015 Rise Set
Actual Time
Civil Twilight
Nautical Twilight
Astronomical Twilight
Moon
Length of Visible Light
Length of Day
Tomorrow will be .
, % of the Moon is Illuminated

Today's Extremes

State Highs State Lows

Community

WunderPhotos

Upload Photos

1,843,785 photos uploaded!

WunderBlogs® & News

Nearby

Air Quality

  Air Quality AQ Index Pollutant
Not available.

Snow Depth

Station Depth Elevation

Earthquake Activity

City Distance Mag. Time & Date
Minimum magnitude displayed is 2.5.

Coastal Water Temperatures

Place Temperature

Stations

Nearby Weather Stations

Station Location Temp. Windchill Dew Point Humidity Wind Precip. Elev Updated Type